Terminal Aerodrome Forecast
Issued by NWS

Current Version | Previous Version | Text Only | Print | Product List | Glossary On
Versions: 1 2 3 4 5 6 7 8 9 10 11 12 13 14 15 16 17 18 19 20 21 22 23 24 25
000
FTUS41 KBGM 231401 AAA
TAFITH
TAF AMD
KITH 231401Z 2314/2412 15010G16KT P6SM OVC008
      TEMPO 2314/2316 5SM BR
     FM231600 16015G22KT 4SM -RA BR OVC015
     FM231900 16015G22KT 2SM -RA BR OVC008 WS020/20045KT
     FM240100 21008KT P6SM OVC008 WS020/25035KT
     FM240500 26007KT P6SM OVC015=

USA.gov is the U.S. government's official web portal to all federal, state and local government web resources and services.